Time;durP1;ratioP1;P1;durP2;ratioP2;P2;SDS_P1;SDS_P2;PMS_P1;PMS_P2;Temp;Humidity;BMP_temperature;BMP_pressure;BME280_temperature;BME280_humidity;BME280_pressure;Samples;Min_cycle;Max_cycle;Signal;HPM_P1;HPM_P2
2023/04/13 00:02:09;;;;;;;4.55;1.27;;;;;;;;;;5073598;28;20494;-64
2023/04/13 00:04:34;;;;;;;4.20;1.35;;;;;;;;;;5072343;28;20383;-65
2023/04/13 00:07:02;;;;;;;4.57;1.30;;;;;;;;;;5085924;28;20072;-63
2023/04/13 00:09:30;;;;;;;4.50;1.33;;;;;;;;;;5073947;28;20025;-64
2023/04/13 00:11:57;;;;;;;3.22;1.10;;;;;;;;;;5092612;28;20020;-64
2023/04/13 00:14:26;;;;;;;5.43;1.23;;;;;;;;;;5076121;28;20390;-65
2023/04/13 00:16:51;;;;;;;4.03;1.30;;;;;;;;;;5071988;28;20033;-64
2023/04/13 00:19:17;;;;;;;9.73;1.58;;;;;;;;;;5074694;28;20027;-65
2023/04/13 00:21:43;;;;;;;5.10;1.50;;;;;;;;;;5082930;28;20094;-65
2023/04/13 00:24:08;;;;;;;3.85;1.05;;;;;;;;;;5072061;28;20020;-64
2023/04/13 00:26:34;;;;;;;9.18;1.90;;;;;;;;;;5072581;28;20025;-64
2023/04/13 00:29:01;;;;;;;3.75;1.52;;;;;;;;;;5072203;28;20028;-63
2023/04/13 00:31:26;;;;;;;4.68;1.23;;;;;;;;;;5073875;28;20040;-65
2023/04/13 00:33:51;;;;;;;3.25;1.08;;;;;;;;;;5073082;28;20493;-64
2023/04/13 00:36:16;;;;;;;4.30;0.90;;;;;;;;;;5072297;28;20025;-63
2023/04/13 00:38:43;;;;;;;4.13;1.27;;;;;;;;;;5071393;28;20035;-64
2023/04/13 00:41:09;;;;;;;4.78;1.40;;;;;;;;;;5071654;28;20026;-65
2023/04/13 00:43:35;;;;;;;9.32;1.38;;;;;;;;;;5071272;28;20028;-64
2023/04/13 00:46:00;;;;;;;3.47;1.35;;;;;;;;;;5072167;28;20048;-65
2023/04/13 00:48:26;;;;;;;6.28;1.40;;;;;;;;;;5071375;28;20074;-64
2023/04/13 00:50:51;;;;;;;3.55;1.65;;;;;;;;;;5072585;28;20036;-67
2023/04/13 00:53:17;;;;;;;3.30;1.20;;;;;;;;;;5072429;28;20032;-65
2023/04/13 00:55:42;;;;;;;9.25;1.40;;;;;;;;;;5072332;28;20020;-64
2023/04/13 00:58:08;;;;;;;4.32;1.48;;;;;;;;;;5084869;28;20364;-64
2023/04/13 01:00:37;;;;;;;6.40;1.48;;;;;;;;;;5072721;28;20107;-64
2023/04/13 01:03:03;;;;;;;9.70;1.35;;;;;;;;;;5071679;28;20020;-65
2023/04/13 01:05:34;;;;;;;7.25;1.30;;;;;;;;;;5078232;28;20027;-63
2023/04/13 01:08:07;;;;;;;6.38;1.40;;;;;;;;;;5082217;28;20024;-63
2023/04/13 01:10:33;;;;;;;7.32;1.65;;;;;;;;;;5082516;28;20032;-64
2023/04/13 01:13:16;;;;;;;3.03;1.25;;;;;;;;;;5073945;28;20093;-66
2023/04/13 01:15:45;;;;;;;4.43;1.63;;;;;;;;;;5072012;28;20162;-63
2023/04/13 01:18:14;;;;;;;6.68;1.50;;;;;;;;;;5071599;28;20130;-65
2023/04/13 01:20:40;;;;;;;3.67;1.50;;;;;;;;;;5071536;28;20034;-64
2023/04/13 01:23:11;;;;;;;3.60;1.38;;;;;;;;;;5071207;28;20099;-64
2023/04/13 01:25:36;;;;;;;5.55;1.83;;;;;;;;;;5084772;28;20036;-65
2023/04/13 01:28:12;;;;;;;5.35;1.42;;;;;;;;;;5072016;28;20052;-65
2023/04/13 01:30:38;;;;;;;6.47;2.00;;;;;;;;;;5071048;28;20043;-64
2023/04/13 01:33:04;;;;;;;7.15;1.98;;;;;;;;;;5070726;28;20031;-65
2023/04/13 01:35:30;;;;;;;9.45;1.80;;;;;;;;;;5080758;28;20025;-65
2023/04/13 01:37:58;;;;;;;5.50;1.85;;;;;;;;;;5070613;28;20050;-65
2023/04/13 01:40:24;;;;;;;3.75;1.90;;;;;;;;;;5071024;28;20095;-64
2023/04/13 01:42:50;;;;;;;7.88;2.42;;;;;;;;;;5070129;28;20383;-66
2023/04/13 01:45:26;;;;;;;9.15;2.17;;;;;;;;;;5070810;28;20027;-66
2023/04/13 01:48:10;;;;;;;4.75;1.55;;;;;;;;;;5070837;28;20035;-65
2023/04/13 01:50:47;;;;;;;9.90;2.60;;;;;;;;;;5079053;28;20078;-66
2023/04/13 01:53:17;;;;;;;9.23;2.33;;;;;;;;;;5073916;28;20529;-66
2023/04/13 01:55:43;;;;;;;6.85;1.58;;;;;;;;;;5070848;28;20048;-64
2023/04/13 01:58:10;;;;;;;7.53;2.08;;;;;;;;;;5070626;28;20511;-64
2023/04/13 02:00:35;;;;;;;13.98;2.47;;;;;;;;;;5077238;28;20024;-65
2023/04/13 02:03:08;;;;;;;12.75;1.92;;;;;;;;;;5077838;28;20468;-64
2023/04/13 02:05:35;;;;;;;7.70;2.40;;;;;;;;;;5074918;28;20043;-65
2023/04/13 02:08:02;;;;;;;10.73;2.00;;;;;;;;;;5074633;28;20032;-64
2023/04/13 02:10:27;;;;;;;7.63;2.05;;;;;;;;;;5084687;28;20046;-66
2023/04/13 02:12:53;;;;;;;5.22;2.30;;;;;;;;;;5078034;28;20025;-65
2023/04/13 02:15:19;;;;;;;6.07;1.92;;;;;;;;;;5074450;28;20040;-63
2023/04/13 02:17:44;;;;;;;5.80;2.05;;;;;;;;;;5074568;28;20031;-63
2023/04/13 02:20:10;;;;;;;7.57;2.33;;;;;;;;;;5074610;28;20403;-64
2023/04/13 02:22:36;;;;;;;6.95;2.15;;;;;;;;;;5073999;28;20284;-64
2023/04/13 02:25:01;;;;;;;7.25;2.97;;;;;;;;;;5073987;28;20029;-64
2023/04/13 02:27:27;;;;;;;8.15;2.42;;;;;;;;;;5073759;28;20027;-64
2023/04/13 02:29:54;;;;;;;6.20;1.77;;;;;;;;;;5081640;28;20028;-63
2023/04/13 02:32:19;;;;;;;5.28;2.08;;;;;;;;;;5085307;28;20043;-64
2023/04/13 02:34:44;;;;;;;5.68;1.77;;;;;;;;;;5074244;28;20557;-63
2023/04/13 02:37:10;;;;;;;7.28;2.10;;;;;;;;;;5073484;28;20036;-63
2023/04/13 02:39:36;;;;;;;4.35;1.52;;;;;;;;;;5073486;28;20111;-63
2023/04/13 02:42:02;;;;;;;9.07;2.38;;;;;;;;;;5073466;28;20024;-63
2023/04/13 02:44:27;;;;;;;4.40;2.08;;;;;;;;;;5073128;28;20033;-64
2023/04/13 02:46:52;;;;;;;9.25;2.28;;;;;;;;;;5073291;28;20025;-64
2023/04/13 02:49:17;;;;;;;6.10;2.17;;;;;;;;;;5073805;28;20017;-64
2023/04/13 02:51:43;;;;;;;9.32;2.13;;;;;;;;;;5076595;28;20542;-63
2023/04/13 02:54:09;;;;;;;3.65;1.48;;;;;;;;;;5092143;28;20016;-64
2023/04/13 02:56:34;;;;;;;7.68;2.53;;;;;;;;;;5089671;28;20054;-64
2023/04/13 02:59:00;;;;;;;8.15;1.88;;;;;;;;;;5081561;28;20410;-65
2023/04/13 03:01:25;;;;;;;10.70;2.25;;;;;;;;;;5073574;28;20026;-64
2023/04/13 03:03:50;;;;;;;7.35;2.55;;;;;;;;;;5073532;28;20683;-65
2023/04/13 03:06:16;;;;;;;10.50;2.60;;;;;;;;;;5073925;28;20021;-65
2023/04/13 03:08:41;;;;;;;7.80;2.38;;;;;;;;;;5073693;28;20529;-65
2023/04/13 03:11:10;;;;;;;11.30;2.40;;;;;;;;;;5086705;28;20532;-65
2023/04/13 03:13:35;;;;;;;8.65;2.60;;;;;;;;;;5073800;28;20029;-65
2023/04/13 03:16:01;;;;;;;7.35;2.55;;;;;;;;;;5074067;28;20036;-66
2023/04/13 03:18:27;;;;;;;8.68;2.05;;;;;;;;;;5083035;28;20532;-65
2023/04/13 03:20:52;;;;;;;10.13;2.38;;;;;;;;;;5079701;28;20033;-65
2023/04/13 03:23:18;;;;;;;9.15;2.20;;;;;;;;;;5083215;28;20078;-65
2023/04/13 03:25:43;;;;;;;11.18;2.53;;;;;;;;;;5077284;28;20040;-65
2023/04/13 03:28:08;;;;;;;9.27;1.90;;;;;;;;;;5071917;28;20115;-65
2023/04/13 03:30:33;;;;;;;7.78;1.88;;;;;;;;;;5086014;28;20043;-65
2023/04/13 03:32:59;;;;;;;3.90;1.77;;;;;;;;;;5072311;28;20035;-64
2023/04/13 03:35:24;;;;;;;5.30;1.73;;;;;;;;;;5072781;28;20055;-65
2023/04/13 03:37:49;;;;;;;4.72;1.80;;;;;;;;;;5085852;28;20383;-65
2023/04/13 03:40:15;;;;;;;8.18;2.33;;;;;;;;;;5072426;28;20032;-65
2023/04/13 03:42:40;;;;;;;6.30;2.22;;;;;;;;;;5072772;28;20028;-65
2023/04/13 03:45:06;;;;;;;7.95;2.20;;;;;;;;;;5073579;28;20024;-65
2023/04/13 03:47:31;;;;;;;4.75;1.80;;;;;;;;;;5073522;28;20032;-65
2023/04/13 03:49:56;;;;;;;3.05;1.17;;;;;;;;;;5072907;28;20024;-65
2023/04/13 03:52:22;;;;;;;4.68;1.60;;;;;;;;;;5073944;28;20021;-65
2023/04/13 03:54:47;;;;;;;4.40;1.48;;;;;;;;;;5072685;28;20387;-65
2023/04/13 03:57:12;;;;;;;3.97;1.25;;;;;;;;;;5072815;28;20020;-65
2023/04/13 03:59:37;;;;;;;9.57;1.23;;;;;;;;;;5074016;28;20051;-64
2023/04/13 04:02:03;;;;;;;3.55;1.25;;;;;;;;;;5072804;28;20029;-64
2023/04/13 04:04:28;;;;;;;3.53;1.05;;;;;;;;;;5073129;28;20031;-64
2023/04/13 04:06:54;;;;;;;4.00;1.45;;;;;;;;;;5073243;28;20020;-64
2023/04/13 04:09:20;;;;;;;3.38;1.30;;;;;;;;;;5073006;28;20035;-65
2023/04/13 04:11:45;;;;;;;4.35;1.50;;;;;;;;;;5085486;28;20020;-64
2023/04/13 04:14:10;;;;;;;4.45;1.27;;;;;;;;;;5073444;28;20024;-64
2023/04/13 04:16:35;;;;;;;4.63;1.45;;;;;;;;;;5085540;28;20051;-64
2023/04/13 04:19:01;;;;;;;6.20;2.08;;;;;;;;;;5072506;28;20028;-64
2023/04/13 04:21:32;;;;;;;5.50;1.33;;;;;;;;;;5076221;28;20025;-64
2023/04/13 04:23:59;;;;;;;6.65;1.45;;;;;;;;;;5072024;28;20433;-64
2023/04/13 04:26:24;;;;;;;4.50;1.50;;;;;;;;;;5072158;28;20024;-64
2023/04/13 04:28:50;;;;;;;6.72;1.63;;;;;;;;;;5071354;28;20024;-65
2023/04/13 04:31:16;;;;;;;5.18;1.17;;;;;;;;;;5071719;28;20111;-64
2023/04/13 04:33:42;;;;;;;3.80;1.58;;;;;;;;;;5071840;28;20123;-64
2023/04/13 04:36:09;;;;;;;8.38;1.90;;;;;;;;;;5071574;28;20104;-64
2023/04/13 04:38:34;;;;;;;5.25;1.80;;;;;;;;;;5073470;28;20773;-64
2023/04/13 04:41:01;;;;;;;6.13;1.40;;;;;;;;;;5072344;28;20023;-64
2023/04/13 04:43:28;;;;;;;5.22;1.60;;;;;;;;;;5072423;28;20020;-63
2023/04/13 04:45:56;;;;;;;3.08;1.30;;;;;;;;;;5072179;28;20024;-63
2023/04/13 04:48:23;;;;;;;3.30;1.40;;;;;;;;;;5079352;28;20028;-63
2023/04/13 04:50:51;;;;;;;5.05;1.40;;;;;;;;;;5071780;28;20028;-63
2023/04/13 04:53:16;;;;;;;10.25;1.67;;;;;;;;;;5073541;28;20021;-63
2023/04/13 04:55:42;;;;;;;3.03;1.33;;;;;;;;;;5076857;28;20043;-64
2023/04/13 04:58:07;;;;;;;6.43;1.52;;;;;;;;;;5072117;28;20052;-63
2023/04/13 05:00:34;;;;;;;5.65;1.83;;;;;;;;;;5071553;28;20486;-63
2023/04/13 05:03:00;;;;;;;2.63;1.23;;;;;;;;;;5071903;28;20117;-63
2023/04/13 05:05:25;;;;;;;3.55;1.33;;;;;;;;;;5071550;28;20028;-63
2023/04/13 05:07:51;;;;;;;8.38;1.63;;;;;;;;;;5081503;28;20446;-63
2023/04/13 05:10:16;;;;;;;4.35;1.20;;;;;;;;;;5081235;28;20393;-63
2023/04/13 05:12:41;;;;;;;4.18;1.45;;;;;;;;;;5076184;28;20017;-63
2023/04/13 05:15:07;;;;;;;6.45;1.58;;;;;;;;;;5073723;28;20028;-63
2023/04/13 05:17:33;;;;;;;4.25;1.30;;;;;;;;;;5076358;28;20443;-63
2023/04/13 05:19:58;;;;;;;5.82;1.35;;;;;;;;;;5071971;28;20091;-63
2023/04/13 05:22:24;;;;;;;5.70;1.20;;;;;;;;;;5071282;28;20498;-64
2023/04/13 05:24:49;;;;;;;5.28;1.38;;;;;;;;;;5070922;28;20029;-64
2023/04/13 05:27:14;;;;;;;6.13;1.70;;;;;;;;;;5073311;28;20426;-63
2023/04/13 05:29:40;;;;;;;4.85;1.48;;;;;;;;;;5071038;28;20159;-71
2023/04/13 05:32:06;;;;;;;5.95;1.48;;;;;;;;;;5070186;28;20073;-66
2023/04/13 05:34:32;;;;;;;3.30;1.23;;;;;;;;;;5070305;28;20070;-64
2023/04/13 05:36:58;;;;;;;5.43;1.73;;;;;;;;;;5038704;28;20020;-64
2023/04/13 05:39:24;;;;;;;4.60;1.15;;;;;;;;;;5071193;28;20070;-63
2023/04/13 05:41:49;;;;;;;4.60;1.80;;;;;;;;;;5071675;28;20024;-65
2023/04/13 05:44:15;;;;;;;5.68;1.80;;;;;;;;;;5070694;28;20445;-65
2023/04/13 05:46:40;;;;;;;4.20;1.60;;;;;;;;;;5058329;28;20875;-65
2023/04/13 05:49:05;;;;;;;6.72;2.15;;;;;;;;;;5035816;28;20127;-65
2023/04/13 05:51:32;;;;;;;8.55;2.15;;;;;;;;;;5018288;28;20051;-65
2023/04/13 05:53:58;;;;;;;6.97;2.08;;;;;;;;;;5042244;28;20091;-65
2023/04/13 05:56:24;;;;;;;8.02;2.08;;;;;;;;;;5034877;28;20043;-65
2023/04/13 05:58:50;;;;;;;3.92;1.75;;;;;;;;;;5051273;28;20080;-66
2023/04/13 06:01:17;;;;;;;7.22;1.60;;;;;;;;;;5070867;28;20029;-65
2023/04/13 06:03:42;;;;;;;6.28;1.92;;;;;;;;;;5047738;28;20024;-64
2023/04/13 06:06:07;;;;;;;5.30;1.98;;;;;;;;;;5048657;28;20024;-66
2023/04/13 06:08:33;;;;;;;5.43;2.25;;;;;;;;;;5070431;28;20363;-66
2023/04/13 06:10:58;;;;;;;10.30;2.17;;;;;;;;;;5071906;28;20089;-65
2023/04/13 06:13:24;;;;;;;9.10;2.22;;;;;;;;;;5032129;28;20936;-65
2023/04/13 06:15:50;;;;;;;8.18;2.40;;;;;;;;;;5032982;28;20020;-66
2023/04/13 06:18:15;;;;;;;7.20;2.83;;;;;;;;;;5031572;28;20076;-65
2023/04/13 06:20:40;;;;;;;9.55;2.00;;;;;;;;;;5032848;28;20027;-65
2023/04/13 06:23:06;;;;;;;6.90;2.33;;;;;;;;;;5067426;28;20471;-65
2023/04/13 06:25:31;;;;;;;7.35;2.10;;;;;;;;;;5070941;28;20048;-64
2023/04/13 06:27:57;;;;;;;6.38;2.10;;;;;;;;;;5066218;28;20412;-65
2023/04/13 06:30:22;;;;;;;5.25;2.30;;;;;;;;;;5076057;28;20039;-65
2023/04/13 06:32:47;;;;;;;5.63;2.42;;;;;;;;;;5071993;28;20054;-65
2023/04/13 06:35:13;;;;;;;9.88;1.92;;;;;;;;;;5070011;28;20021;-65
2023/04/13 06:37:38;;;;;;;8.63;2.10;;;;;;;;;;5073704;28;20451;-65
2023/04/13 06:40:14;;;;;;;6.40;2.03;;;;;;;;;;5075221;28;20024;-65
2023/04/13 06:42:40;;;;;;;6.47;1.92;;;;;;;;;;5054584;28;20035;-65
2023/04/13 06:45:07;;;;;;;8.68;2.95;;;;;;;;;;5032292;28;20024;-65
2023/04/13 06:47:32;;;;;;;8.73;2.25;;;;;;;;;;5048795;28;20024;-65
2023/04/13 06:50:00;;;;;;;7.38;2.67;;;;;;;;;;5038423;28;20062;-64
2023/04/13 06:52:26;;;;;;;6.70;2.78;;;;;;;;;;5057621;28;20049;-65
2023/04/13 06:54:51;;;;;;;10.45;2.65;;;;;;;;;;5078549;28;20031;-65
2023/04/13 06:57:17;;;;;;;10.68;2.70;;;;;;;;;;5074409;28;20067;-65
2023/04/13 06:59:42;;;;;;;9.93;3.42;;;;;;;;;;5047762;28;20071;-65
2023/04/13 07:02:08;;;;;;;9.77;2.30;;;;;;;;;;5035029;28;20858;-65
2023/04/13 07:04:33;;;;;;;13.50;2.92;;;;;;;;;;5045562;28;20034;-66
2023/04/13 07:06:59;;;;;;;12.93;3.03;;;;;;;;;;5040081;28;20047;-66
2023/04/13 07:09:25;;;;;;;7.35;3.22;;;;;;;;;;5048245;28;20834;-64
2023/04/13 07:11:50;;;;;;;14.95;6.55;;;;;;;;;;5049048;28;20132;-64
2023/04/13 07:14:15;;;;;;;10.75;4.20;;;;;;;;;;5074520;28;20055;-65
2023/04/13 07:16:40;;;;;;;8.73;4.28;;;;;;;;;;5077014;28;20043;-64
2023/04/13 07:19:06;;;;;;;12.43;5.32;;;;;;;;;;5037550;28;20090;-64
2023/04/13 07:21:32;;;;;;;10.30;4.88;;;;;;;;;;5026300;28;20044;-64
2023/04/13 07:23:57;;;;;;;11.82;4.38;;;;;;;;;;5037925;28;20025;-65
2023/04/13 07:26:22;;;;;;;10.10;3.72;;;;;;;;;;5045176;28;20794;-64
2023/04/13 07:28:47;;;;;;;11.48;4.22;;;;;;;;;;5066873;28;20111;-64
2023/04/13 07:31:13;;;;;;;11.57;3.85;;;;;;;;;;5041421;28;21028;-64
2023/04/13 07:33:38;;;;;;;8.52;2.78;;;;;;;;;;5047668;28;20931;-65
2023/04/13 07:36:03;;;;;;;10.68;4.00;;;;;;;;;;5025871;28;20059;-66
2023/04/13 07:38:29;;;;;;;11.63;3.30;;;;;;;;;;5040683;28;20063;-64
2023/04/13 07:40:54;;;;;;;16.02;3.83;;;;;;;;;;5040276;28;20025;-64
2023/04/13 07:43:22;;;;;;;10.25;4.45;;;;;;;;;;5034419;28;20021;-64
2023/04/13 07:45:47;;;;;;;11.52;3.70;;;;;;;;;;5036027;28;20024;-64
2023/04/13 07:48:13;;;;;;;10.52;3.38;;;;;;;;;;5038881;28;20131;-64
2023/04/13 07:50:44;;;;;;;7.82;3.05;;;;;;;;;;5040265;28;20905;-65
2023/04/13 07:53:10;;;;;;;9.07;3.45;;;;;;;;;;5044305;28;20087;-64
2023/04/13 07:55:36;;;;;;;15.45;4.25;;;;;;;;;;5041465;28;20505;-64
2023/04/13 07:58:01;;;;;;;16.92;4.20;;;;;;;;;;5036234;28;20025;-65
2023/04/13 08:00:27;;;;;;;12.05;3.92;;;;;;;;;;5038565;28;20023;-65
2023/04/13 08:02:53;;;;;;;11.20;3.90;;;;;;;;;;5048035;28;20810;-65
2023/04/13 08:05:18;;;;;;;13.23;4.53;;;;;;;;;;5047947;28;20055;-64
2023/04/13 08:07:45;;;;;;;11.02;4.25;;;;;;;;;;5044722;28;20035;-64
2023/04/13 08:10:10;;;;;;;14.32;4.60;;;;;;;;;;5036421;28;20147;-64
2023/04/13 08:12:36;;;;;;;10.68;4.35;;;;;;;;;;5032870;28;20040;-66
2023/04/13 08:15:01;;;;;;;15.57;4.95;;;;;;;;;;5033704;28;20017;-64
2023/04/13 08:17:27;;;;;;;9.05;3.97;;;;;;;;;;5039842;28;20025;-64
2023/04/13 08:19:52;;;;;;;11.82;4.53;;;;;;;;;;5034413;28;20020;-64
2023/04/13 08:22:17;;;;;;;14.30;3.75;;;;;;;;;;5046485;28;20019;-64
2023/04/13 08:24:43;;;;;;;14.05;4.13;;;;;;;;;;5055879;28;20055;-64
2023/04/13 08:27:08;;;;;;;18.55;4.70;;;;;;;;;;5044597;28;20048;-64
2023/04/13 08:29:34;;;;;;;10.68;4.38;;;;;;;;;;5039638;28;20860;-66
2023/04/13 08:32:00;;;;;;;11.00;3.75;;;;;;;;;;5038090;28;20020;-66
2023/04/13 08:34:26;;;;;;;9.23;3.97;;;;;;;;;;5034692;28;20028;-65
2023/04/13 08:36:53;;;;;;;7.63;3.97;;;;;;;;;;5047215;28;20039;-65
2023/04/13 08:39:20;;;;;;;14.82;4.47;;;;;;;;;;5036126;28;20037;-66
2023/04/13 08:41:46;;;;;;;9.05;3.83;;;;;;;;;;5046166;28;20134;-65
2023/04/13 08:44:12;;;;;;;10.40;4.32;;;;;;;;;;5036518;28;20052;-65
2023/04/13 08:46:38;;;;;;;7.05;2.92;;;;;;;;;;5041643;28;20031;-64
2023/04/13 08:49:06;;;;;;;11.38;4.10;;;;;;;;;;5040304;28;20785;-65
2023/04/13 08:51:32;;;;;;;10.90;3.58;;;;;;;;;;5032732;28;20023;-64
2023/04/13 08:53:57;;;;;;;12.05;3.90;;;;;;;;;;5036318;28;20017;-66
2023/04/13 08:56:23;;;;;;;11.57;3.88;;;;;;;;;;5062812;28;20028;-65
2023/04/13 08:58:50;;;;;;;13.93;3.28;;;;;;;;;;5039331;28;20023;-65
2023/04/13 09:01:15;;;;;;;12.32;3.83;;;;;;;;;;5045688;28;20025;-64
2023/04/13 09:04:04;;;;;;;13.57;3.33;;;;;;;;;;5044315;28;20027;-69
2023/04/13 09:06:34;;;;;;;10.65;3.25;;;;;;;;;;5019844;28;20051;-73
2023/04/13 09:09:02;;;;;;;14.43;3.55;;;;;;;;;;5042221;28;20035;-66
2023/04/13 09:11:27;;;;;;;12.27;4.07;;;;;;;;;;5035821;28;20028;-70
2023/04/13 09:13:52;;;;;;;14.60;4.10;;;;;;;;;;5049024;28;20848;-67
2023/04/13 09:16:18;;;;;;;13.95;3.78;;;;;;;;;;5048672;28;20024;-67
2023/04/13 09:18:56;;;;;;;18.65;4.53;;;;;;;;;;5029152;28;20555;-66
2023/04/13 09:21:22;;;;;;;13.52;4.10;;;;;;;;;;5037738;28;20024;-64
2023/04/13 09:23:53;;;;;;;12.80;3.30;;;;;;;;;;5050665;28;20027;-65
2023/04/13 09:26:19;;;;;;;10.85;3.70;;;;;;;;;;5037204;28;20407;-65
2023/04/13 09:28:45;;;;;;;15.27;4.80;;;;;;;;;;5037302;28;20035;-67
2023/04/13 09:31:12;;;;;;;8.82;3.75;;;;;;;;;;5064249;28;20033;-70
2023/04/13 09:33:51;;;;;;;11.82;3.95;;;;;;;;;;5044934;28;20127;-69
2023/04/13 09:36:18;;;;;;;10.50;3.80;;;;;;;;;;5047451;28;20030;-66
2023/04/13 09:38:46;;;;;;;6.47;2.95;;;;;;;;;;5079645;28;20142;-65
2023/04/13 09:41:11;;;;;;;9.23;2.88;;;;;;;;;;5033579;28;21030;-67
2023/04/13 09:43:37;;;;;;;11.35;3.13;;;;;;;;;;5035263;28;20051;-64
2023/04/13 09:46:27;;;;;;;10.82;3.28;;;;;;;;;;5072303;28;20025;-67
2023/04/13 09:48:59;;;;;;;11.60;2.60;;;;;;;;;;5047348;28;20030;-67
2023/04/13 09:51:26;;;;;;;7.45;2.90;;;;;;;;;;5063590;28;20028;-63
2023/04/13 09:53:52;;;;;;;5.95;2.90;;;;;;;;;;5043221;28;20025;-66
2023/04/13 09:56:18;;;;;;;8.32;3.13;;;;;;;;;;5036482;28;20031;-67
2023/04/13 09:58:45;;;;;;;15.02;4.28;;;;;;;;;;5046991;28;20024;-67
2023/04/13 10:01:10;;;;;;;12.05;3.90;;;;;;;;;;5029300;28;20042;-61
2023/04/13 10:03:36;;;;;;;17.30;3.85;;;;;;;;;;5046222;28;20480;-61
2023/04/13 10:06:06;;;;;;;10.82;3.25;;;;;;;;;;5042636;28;20024;-61
2023/04/13 10:08:32;;;;;;;6.95;3.22;;;;;;;;;;5054217;28;20800;-61
2023/04/13 10:10:59;;;;;;;8.80;3.33;;;;;;;;;;5047968;28;20095;-61
2023/04/13 10:13:26;;;;;;;9.90;3.28;;;;;;;;;;5051963;28;20058;-61
2023/04/13 10:16:15;;;;;;;6.88;2.75;;;;;;;;;;5049441;28;20098;-61
2023/04/13 10:18:56;;;;;;;10.57;4.03;;;;;;;;;;5064111;28;20370;-60
2023/04/13 10:21:21;;;;;;;11.25;4.38;;;;;;;;;;5045590;28;20031;-61
2023/04/13 10:23:47;;;;;;;12.23;4.13;;;;;;;;;;5044125;28;20035;-60
2023/04/13 10:26:12;;;;;;;22.77;3.85;;;;;;;;;;5057034;28;20194;-61
2023/04/13 10:28:44;;;;;;;9.57;3.50;;;;;;;;;;5049596;28;20059;-62
2023/04/13 10:31:09;;;;;;;9.82;3.58;;;;;;;;;;5050586;28;20957;-61
2023/04/13 10:33:50;;;;;;;15.02;4.15;;;;;;;;;;5053087;28;20042;-61
2023/04/13 10:36:16;;;;;;;7.28;4.13;;;;;;;;;;5045233;28;20024;-61
2023/04/13 10:38:42;;;;;;;11.32;3.67;;;;;;;;;;5047979;28;20055;-61
2023/04/13 10:41:07;;;;;;;9.68;3.70;;;;;;;;;;5056870;28;20085;-61
2023/04/13 10:43:33;;;;;;;6.07;2.92;;;;;;;;;;5048175;28;20029;-64
2023/04/13 10:46:08;;;;;;;9.95;3.65;;;;;;;;;;5050207;28;20027;-62
2023/04/13 10:48:34;;;;;;;9.57;3.85;;;;;;;;;;5056551;28;20015;-63
2023/04/13 10:50:59;;;;;;;7.10;2.72;;;;;;;;;;5058310;28;20220;-63
2023/04/13 10:53:27;;;;;;;11.05;3.40;;;;;;;;;;5053932;28;20862;-63
2023/04/13 10:55:53;;;;;;;16.30;3.63;;;;;;;;;;5023765;28;20036;-64
2023/04/13 10:58:18;;;;;;;9.77;3.50;;;;;;;;;;5040795;28;20073;-63
2023/04/13 11:00:45;;;;;;;10.07;2.97;;;;;;;;;;5038939;28;20024;-62
2023/04/13 11:03:10;;;;;;;11.82;4.03;;;;;;;;;;5048485;28;20040;-60
2023/04/13 11:05:36;;;;;;;13.30;3.30;;;;;;;;;;5042977;28;20020;-60
2023/04/13 11:08:02;;;;;;;9.10;3.45;;;;;;;;;;5043257;28;20016;-62
2023/04/13 11:10:29;;;;;;;9.10;3.00;;;;;;;;;;5054239;28;20028;-60
2023/04/13 11:12:55;;;;;;;8.52;3.22;;;;;;;;;;5038638;28;20027;-63
2023/04/13 11:15:24;;;;;;;10.02;2.95;;;;;;;;;;5048020;28;20028;-63
2023/04/13 11:17:51;;;;;;;10.60;3.00;;;;;;;;;;5042010;28;20027;-66
2023/04/13 11:20:16;;;;;;;8.45;3.25;;;;;;;;;;5038399;28;20025;-64
2023/04/13 11:22:41;;;;;;;10.45;3.25;;;;;;;;;;5040337;28;20055;-61
2023/04/13 11:25:07;;;;;;;8.27;2.53;;;;;;;;;;5043931;28;20970;-61
2023/04/13 11:27:33;;;;;;;13.10;3.30;;;;;;;;;;5045112;28;20865;-60
2023/04/13 11:29:59;;;;;;;7.32;2.78;;;;;;;;;;5043233;28;20031;-61
2023/04/13 11:32:25;;;;;;;10.65;2.90;;;;;;;;;;5049616;28;20028;-61
2023/04/13 11:34:50;;;;;;;6.93;2.42;;;;;;;;;;5048770;28;20132;-62
2023/04/13 11:37:16;;;;;;;14.63;3.33;;;;;;;;;;5043192;28;20127;-63
2023/04/13 11:39:45;;;;;;;7.50;2.60;;;;;;;;;;5036204;28;20028;-62
2023/04/13 11:42:10;;;;;;;6.30;3.00;;;;;;;;;;5041410;28;20238;-68
2023/04/13 11:44:36;;;;;;;14.98;3.00;;;;;;;;;;5044677;28;20849;-61
2023/04/13 11:47:02;;;;;;;7.40;2.75;;;;;;;;;;5048828;28;20024;-64
2023/04/13 11:49:28;;;;;;;8.90;3.00;;;;;;;;;;5042535;28;20863;-64
2023/04/13 11:51:54;;;;;;;8.20;2.97;;;;;;;;;;5066060;28;20025;-62
2023/04/13 11:54:19;;;;;;;6.55;3.47;;;;;;;;;;5045344;28;20020;-62
2023/04/13 11:56:46;;;;;;;4.00;1.98;;;;;;;;;;5045446;28;20471;-63
2023/04/13 11:59:12;;;;;;;6.53;2.75;;;;;;;;;;5046078;28;20874;-64
2023/04/13 12:01:37;;;;;;;9.75;3.10;;;;;;;;;;5036920;28;20028;-63
2023/04/13 12:04:03;;;;;;;6.75;2.55;;;;;;;;;;5035341;28;20074;-64
2023/04/13 12:06:29;;;;;;;8.50;3.25;;;;;;;;;;5037601;28;20025;-64
2023/04/13 12:08:58;;;;;;;9.18;3.17;;;;;;;;;;5036952;28;21013;-63
2023/04/13 12:11:24;;;;;;;5.82;2.78;;;;;;;;;;5036308;28;20083;-64
2023/04/13 12:13:52;;;;;;;11.40;3.00;;;;;;;;;;5054121;28;20044;-63
2023/04/13 12:16:26;;;;;;;10.75;2.70;;;;;;;;;;5065489;28;20032;-64
2023/04/13 12:18:51;;;;;;;5.17;2.80;;;;;;;;;;5045589;28;20028;-65
2023/04/13 12:21:17;;;;;;;8.82;3.30;;;;;;;;;;5042063;28;21253;-64
2023/04/13 12:23:57;;;;;;;8.00;3.25;;;;;;;;;;5035028;28;20874;-63
2023/04/13 12:26:29;;;;;;;12.30;3.92;;;;;;;;;;5034643;28;20032;-61
2023/04/13 12:28:55;;;;;;;8.02;3.13;;;;;;;;;;5035848;28;20352;-63
2023/04/13 12:31:21;;;;;;;10.40;3.72;;;;;;;;;;5035613;28;20046;-62
2023/04/13 12:33:46;;;;;;;6.47;4.22;;;;;;;;;;5036097;28;20021;-62
2023/04/13 12:36:11;;;;;;;7.72;3.38;;;;;;;;;;5045772;28;20861;-62
2023/04/13 12:38:37;;;;;;;15.17;3.57;;;;;;;;;;5063652;28;20013;-62
2023/04/13 12:41:02;;;;;;;7.40;3.00;;;;;;;;;;5052111;28;20279;-63
2023/04/13 12:43:28;;;;;;;5.75;2.60;;;;;;;;;;5046534;28;20028;-62
2023/04/13 12:45:54;;;;;;;6.38;2.75;;;;;;;;;;5034174;28;20013;-62
2023/04/13 12:48:19;;;;;;;7.18;3.08;;;;;;;;;;5033515;28;20025;-61
2023/04/13 12:50:45;;;;;;;7.60;3.10;;;;;;;;;;5052065;28;20028;-61
2023/04/13 12:53:11;;;;;;;6.93;2.88;;;;;;;;;;5039164;28;20035;-61
2023/04/13 12:55:39;;;;;;;15.25;2.65;;;;;;;;;;5046998;28;20031;-62
2023/04/13 12:58:04;;;;;;;9.10;2.60;;;;;;;;;;5036662;28;20020;-62
2023/04/13 13:00:29;;;;;;;9.32;2.80;;;;;;;;;;5033999;28;20194;-62
2023/04/13 13:02:55;;;;;;;7.22;2.60;;;;;;;;;;5064553;28;20356;-62
2023/04/13 13:05:20;;;;;;;6.70;2.55;;;;;;;;;;5041540;28;20959;-62
2023/04/13 13:07:45;;;;;;;6.38;2.17;;;;;;;;;;5038265;28;20012;-63
2023/04/13 13:10:11;;;;;;;7.57;2.60;;;;;;;;;;5039607;28;20055;-63
2023/04/13 13:12:36;;;;;;;5.45;2.58;;;;;;;;;;5083968;28;20373;-62
2023/04/13 13:15:03;;;;;;;8.65;2.30;;;;;;;;;;5060166;28;20075;-62
2023/04/13 13:17:28;;;;;;;8.68;2.13;;;;;;;;;;5068954;28;20765;-62
2023/04/13 13:19:54;;;;;;;5.47;2.03;;;;;;;;;;5071180;28;20035;-62
2023/04/13 13:22:19;;;;;;;4.22;1.95;;;;;;;;;;5070459;28;20024;-64
2023/04/13 13:24:45;;;;;;;6.55;2.33;;;;;;;;;;5053012;28;20033;-62
2023/04/13 13:27:10;;;;;;;5.30;2.25;;;;;;;;;;5047057;28;20035;-62
2023/04/13 13:29:36;;;;;;;7.38;2.20;;;;;;;;;;5047229;28;20020;-62
2023/04/13 13:32:01;;;;;;;6.88;2.40;;;;;;;;;;5033682;28;20032;-63
2023/04/13 13:34:26;;;;;;;7.43;2.30;;;;;;;;;;5051214;28;20024;-62
2023/04/13 13:36:52;;;;;;;7.10;2.00;;;;;;;;;;5035893;28;20131;-64
2023/04/13 13:39:20;;;;;;;7.90;2.22;;;;;;;;;;5041254;28;20032;-64
2023/04/13 13:41:45;;;;;;;10.70;2.42;;;;;;;;;;5032206;28;20025;-63
2023/04/13 13:44:10;;;;;;;5.95;2.38;;;;;;;;;;5036753;28;20889;-63
2023/04/13 13:46:36;;;;;;;6.45;2.55;;;;;;;;;;5049880;28;20103;-63
2023/04/13 13:49:01;;;;;;;7.35;2.40;;;;;;;;;;5066455;28;20104;-62
2023/04/13 13:51:27;;;;;;;8.85;2.28;;;;;;;;;;5071293;28;20028;-62
2023/04/13 13:53:52;;;;;;;13.27;3.30;;;;;;;;;;5066570;28;20048;-62
2023/04/13 13:56:17;;;;;;;6.60;2.38;;;;;;;;;;5038055;28;20052;-64
2023/04/13 13:58:43;;;;;;;4.72;1.85;;;;;;;;;;5046566;28;20028;-62
2023/04/13 14:01:08;;;;;;;6.30;2.70;;;;;;;;;;5037613;28;20020;-64
2023/04/13 14:03:35;;;;;;;10.95;2.72;;;;;;;;;;5047681;28;20058;-65
2023/04/13 14:06:00;;;;;;;3.35;1.40;;;;;;;;;;5042400;28;20129;-65
2023/04/13 14:08:25;;;;;;;6.38;2.22;;;;;;;;;;5046058;28;20866;-65
2023/04/13 14:10:50;;;;;;;4.13;1.65;;;;;;;;;;5049412;28;20461;-71
2023/04/13 14:13:16;;;;;;;4.07;1.92;;;;;;;;;;5059016;28;20097;-65
2023/04/13 14:15:41;;;;;;;9.13;1.83;;;;;;;;;;5077785;28;20020;-65
2023/04/13 14:18:06;;;;;;;3.67;1.67;;;;;;;;;;5089999;28;20024;-65
2023/04/13 14:20:33;;;;;;;3.63;1.27;;;;;;;;;;5083876;28;20059;-65
2023/04/13 14:22:58;;;;;;;7.13;2.35;;;;;;;;;;5078824;28;20025;-65
2023/04/13 14:25:23;;;;;;;2.67;1.40;;;;;;;;;;5083970;28;20467;-65
2023/04/13 14:27:49;;;;;;;5.90;2.10;;;;;;;;;;5079337;28;20109;-65
2023/04/13 14:30:16;;;;;;;3.78;1.50;;;;;;;;;;5083615;28;20042;-64
2023/04/13 14:32:41;;;;;;;11.45;1.80;;;;;;;;;;5077678;28;20531;-64
2023/04/13 14:35:07;;;;;;;3.67;1.83;;;;;;;;;;5077187;28;20107;-64